Time;durP1;ratioP1;P1;durP2;ratioP2;P2;SDS_P1;SDS_P2;PMS_P1;PMS_P2;Temp;Humidity;BMP_temperature;BMP_pressure;BME280_temperature;BME280_humidity;BME280_pressure;Samples;Min_cycle;Max_cycle;Signal;HPM_P1;HPM_P2
2023/04/04 00:00:04;;;;;;;;;;;5.10;99.90;5.60;99659.00;;;;337509;28;88377;-96
2023/04/04 00:00:17;;;;;;;;;;;5.10;99.90;5.60;99659.00;;;;336647;28;82404;-96
2023/04/04 00:00:33;;;;;;;;;;;5.10;99.90;5.60;99652.00;;;;336541;29;86653;-96
2023/04/04 00:01:00;;;;;;;;;;;5.10;99.90;5.70;99654.00;;;;333818;29;82388;-96
2023/04/04 00:01:16;;;;;;;;;;;5.10;99.90;5.60;99653.00;;;;333897;29;87196;-96
2023/04/04 00:01:30;;;;;;;;;;;5.10;99.90;5.60;99651.00;;;;337891;28;82578;-96
2023/04/04 00:01:46;;;;;;;;;;;5.10;99.90;5.60;99647.00;;;;336075;29;87578;-96
2023/04/04 00:01:59;;;;;;;;;;;5.10;99.90;5.70;99658.00;;;;336379;28;82575;-96
2023/04/04 00:02:13;;;;;;;;;;;5.10;99.90;5.70;99656.00;;;;337196;28;87393;-96
2023/04/04 00:02:36;;;;;;;;;;;5.10;99.90;5.70;99659.00;;;;337644;28;82537;-96
2023/04/04 00:02:54;;;;;;;;;;;5.20;99.90;5.60;99644.00;;;;337136;28;88300;-96
2023/04/04 00:03:10;;;;;;;;;;;5.10;99.90;5.60;99657.00;;;;337496;28;82641;-96
2023/04/04 00:03:25;;;;;;;;;;;5.10;99.90;5.60;99658.00;;;;337421;28;87619;-96
2023/04/04 00:03:43;;;;;;;;;;;5.10;99.90;5.60;99653.00;;;;335973;29;82571;-96
2023/04/04 00:03:58;;;;;;;;;;;5.10;99.90;5.60;99664.00;;;;337389;28;87248;-96
2023/04/04 00:04:11;;;;;;;;;;;5.10;99.90;5.60;99660.00;;;;337661;28;82496;-96
2023/04/04 00:04:25;;;;;;;;;;;5.10;99.90;5.70;99659.00;;;;334405;29;87198;-96
2023/04/04 00:04:40;;;;;;;;;;;5.10;99.90;5.60;99658.00;;;;338903;28;82548;-96
2023/04/04 00:04:57;;;;;;;;;;;5.10;99.90;5.60;99647.00;;;;338803;28;87101;-96
2023/04/04 00:05:11;;;;;;;;;;;5.10;99.90;5.60;99653.00;;;;337919;28;82334;-96
2023/04/04 00:05:25;;;;;;;;;;;5.10;99.90;5.70;99653.00;;;;335582;29;90015;-96
2023/04/04 00:05:42;;;;;;;;;;;5.10;99.90;5.60;99652.00;;;;338123;28;82510;-96
2023/04/04 00:05:55;;;;;;;;;;;5.10;99.90;5.50;99647.00;;;;335910;29;89554;-96
2023/04/04 00:06:11;;;;;;;;;;;5.10;99.90;5.50;99655.00;;;;338846;28;82609;-96
2023/04/04 00:06:23;;;;;;;;;;;5.10;99.90;5.40;99667.00;;;;335787;28;87224;-96
2023/04/04 00:06:36;;;;;;;;;;;5.10;99.90;5.50;99658.00;;;;336430;29;82410;-96
2023/04/04 00:06:50;;;;;;;;;;;5.00;99.90;5.50;99666.00;;;;338632;28;87183;-96
2023/04/04 00:07:04;;;;;;;;;;;5.10;99.90;5.60;99652.00;;;;336602;28;82547;-96
2023/04/04 00:07:19;;;;;;;;;;;5.10;99.90;5.50;99660.00;;;;336287;29;86593;-96
2023/04/04 00:07:35;;;;;;;;;;;5.00;99.90;5.50;99654.00;;;;337677;28;82701;-96
2023/04/04 00:07:52;;;;;;;;;;;5.10;99.90;5.50;99660.00;;;;337097;28;88190;-96
2023/04/04 00:08:07;;;;;;;;;;;5.10;99.90;5.60;99651.00;;;;339016;28;82710;-96
2023/04/04 00:08:21;;;;;;;;;;;5.10;99.90;5.60;99652.00;;;;336800;28;87477;-96
2023/04/04 00:08:38;;;;;;;;;;;5.00;99.90;5.60;99660.00;;;;337726;28;82576;-96
2023/04/04 00:08:52;;;;;;;;;;;5.00;99.90;5.60;99654.00;;;;334876;29;87437;-96
2023/04/04 00:09:14;;;;;;;;;;;5.10;99.90;5.60;99641.00;;;;336623;29;82368;-96
2023/04/04 00:09:33;;;;;;;;;;;5.10;99.90;5.60;99651.00;;;;336624;28;86695;-96
2023/04/04 00:09:48;;;;;;;;;;;5.10;99.90;5.60;99659.00;;;;336775;28;82540;-96
2023/04/04 00:10:01;;;;;;;;;;;5.10;99.90;5.60;99652.00;;;;337379;28;89571;-96
2023/04/04 00:10:26;;;;;;;;;;;5.10;99.90;5.60;99658.00;;;;337550;28;82568;-96
2023/04/04 00:10:45;;;;;;;;;;;5.10;99.90;5.50;99660.00;;;;338527;28;88371;-96
2023/04/04 00:11:01;;;;;;;;;;;5.10;99.90;5.50;99663.00;;;;337635;28;82480;-96
2023/04/04 00:11:20;;;;;;;;;;;5.00;99.90;5.50;99653.00;;;;335867;29;86857;-96
2023/04/04 00:11:34;;;;;;;;;;;5.00;99.90;5.50;99655.00;;;;336338;29;82541;-96
2023/04/04 00:11:48;;;;;;;;;;;5.10;99.90;5.50;99646.00;;;;338136;28;89326;-96
2023/04/04 00:12:04;;;;;;;;;;;5.00;99.90;5.50;99656.00;;;;339911;28;82479;-96
2023/04/04 00:12:23;;;;;;;;;;;5.00;99.90;5.40;99657.00;;;;339839;28;86889;-96
2023/04/04 00:12:52;;;;;;;;;;;5.00;99.90;5.50;99655.00;;;;337705;28;82685;-96
2023/04/04 00:13:10;;;;;;;;;;;5.00;99.90;5.50;99651.00;;;;336148;29;89631;-96
2023/04/04 00:13:31;;;;;;;;;;;5.00;99.90;5.40;99659.00;;;;340323;28;82618;-96
2023/04/04 00:13:45;;;;;;;;;;;5.00;99.90;5.40;99652.00;;;;338740;28;87591;-96
2023/04/04 00:13:59;;;;;;;;;;;5.00;99.90;5.50;99655.00;;;;336304;28;82539;-96
2023/04/04 00:14:14;;;;;;;;;;;5.00;99.90;5.40;99648.00;;;;338260;28;89114;-96
2023/04/04 00:14:28;;;;;;;;;;;5.00;99.90;5.50;99652.00;;;;337491;28;82565;-96
2023/04/04 00:14:41;;;;;;;;;;;5.00;99.90;5.50;99647.00;;;;337325;28;87543;-96
2023/04/04 00:14:59;;;;;;;;;;;5.00;99.90;5.50;99650.00;;;;337811;28;82482;-96
2023/04/04 00:15:13;;;;;;;;;;;5.00;99.90;5.50;99667.00;;;;338692;28;88925;-96
2023/04/04 00:15:27;;;;;;;;;;;4.90;99.90;5.50;99652.00;;;;338235;28;82328;-96
2023/04/04 00:15:44;;;;;;;;;;;5.00;99.90;5.60;99653.00;;;;338877;28;89229;-96
2023/04/04 00:15:57;;;;;;;;;;;5.00;99.90;5.60;99659.00;;;;339127;28;82512;-96
2023/04/04 00:16:11;;;;;;;;;;;5.00;99.90;5.50;99647.00;;;;338474;28;88500;-96
2023/04/04 00:16:27;;;;;;;;;;;5.00;99.90;5.60;99656.00;;;;340313;28;82543;-96
2023/04/04 00:16:41;;;;;;;;;;;5.00;99.90;5.60;99642.00;;;;338489;28;87415;-96
2023/04/04 00:16:55;;;;;;;;;;;5.00;99.90;5.50;99659.00;;;;338974;28;82521;-96
2023/04/04 00:17:09;;;;;;;;;;;5.00;99.90;5.50;99661.00;;;;337668;28;87336;-96
2023/04/04 00:17:27;;;;;;;;;;;5.00;99.90;5.50;99662.00;;;;336581;28;82535;-96
2023/04/04 00:17:49;;;;;;;;;;;5.00;99.90;5.50;99649.00;;;;337318;28;87285;-96
2023/04/04 00:18:04;;;;;;;;;;;5.00;99.90;5.40;99653.00;;;;339250;28;82394;-96
2023/04/04 00:18:19;;;;;;;;;;;5.00;99.90;5.40;99652.00;;;;336557;28;87357;-96
2023/04/04 00:18:35;;;;;;;;;;;5.00;99.90;5.50;99646.00;;;;340417;28;83752;-96
2023/04/04 00:18:54;;;;;;;;;;;5.00;99.90;5.50;99662.00;;;;338728;28;88350;-96
2023/04/04 00:19:16;;;;;;;;;;;5.00;99.90;5.40;99660.00;;;;339214;28;82598;-96
2023/04/04 00:19:37;;;;;;;;;;;5.00;99.90;5.50;99653.00;;;;338842;28;87466;-96
2023/04/04 00:19:51;;;;;;;;;;;5.00;99.90;5.50;99652.00;;;;339160;28;82726;-96
2023/04/04 00:20:06;;;;;;;;;;;5.00;99.90;5.50;99650.00;;;;337252;28;87295;-96
2023/04/04 00:20:19;;;;;;;;;;;5.00;99.90;5.40;99655.00;;;;338406;28;82618;-96
2023/04/04 00:20:32;;;;;;;;;;;5.00;99.90;5.50;99657.00;;;;336860;28;87140;-96
2023/04/04 00:20:49;;;;;;;;;;;5.00;99.90;5.50;99657.00;;;;336481;29;82406;-96
2023/04/04 00:21:02;;;;;;;;;;;5.00;99.90;5.50;99655.00;;;;338466;28;87575;-96
2023/04/04 00:21:15;;;;;;;;;;;5.00;99.90;5.50;99657.00;;;;338954;28;82553;-96
2023/04/04 00:21:29;;;;;;;;;;;5.00;99.90;5.50;99653.00;;;;336968;28;88349;-96
2023/04/04 00:21:46;;;;;;;;;;;5.00;99.90;5.50;99658.00;;;;338810;28;82567;-96
2023/04/04 00:21:59;;;;;;;;;;;5.00;99.90;5.50;99660.00;;;;337591;28;87320;-96
2023/04/04 00:22:13;;;;;;;;;;;5.00;99.90;5.50;99657.00;;;;338994;28;82616;-96
2023/04/04 00:22:28;;;;;;;;;;;5.00;99.90;5.50;99659.00;;;;339899;28;87451;-96
2023/04/04 00:22:42;;;;;;;;;;;5.00;99.90;5.50;99653.00;;;;337653;28;82647;-96
2023/04/04 00:22:55;;;;;;;;;;;5.00;99.90;5.50;99659.00;;;;334543;28;87347;-96
2023/04/04 00:23:11;;;;;;;;;;;5.00;99.90;5.50;99653.00;;;;337992;28;82372;-96
2023/04/04 00:23:30;;;;;;;;;;;5.00;99.90;5.50;99654.00;;;;340164;28;87555;-96
2023/04/04 00:23:43;;;;;;;;;;;5.00;99.90;5.50;99644.00;;;;337426;28;82602;-96
2023/04/04 00:24:11;;;;;;;;;;;5.00;99.90;5.40;99650.00;;;;337418;28;88223;-96
2023/04/04 00:24:25;;;;;;;;;;;5.00;99.90;5.50;99655.00;;;;338896;28;82588;-96
2023/04/04 00:24:41;;;;;;;;;;;5.00;99.90;5.50;99651.00;;;;338246;28;89019;-96
2023/04/04 00:25:03;;;;;;;;;;;5.00;99.90;5.50;99649.00;;;;339155;28;82582;-96
2023/04/04 00:25:23;;;;;;;;;;;5.00;99.90;5.40;99651.00;;;;335900;28;87314;-96
2023/04/04 00:25:50;;;;;;;;;;;5.00;99.90;5.40;99654.00;;;;339121;28;82735;-96
2023/04/04 00:26:29;;;;;;;;;;;5.00;99.90;5.50;99647.00;;;;337539;28;87395;-96
2023/04/04 00:26:53;;;;;;;;;;;4.90;99.90;5.50;99654.00;;;;336390;29;82611;-96
2023/04/04 00:27:08;;;;;;;;;;;5.00;99.90;5.50;99651.00;;;;338881;28;87501;-96
2023/04/04 00:27:37;;;;;;;;;;;5.00;99.90;5.40;99650.00;;;;339170;28;82304;-96
2023/04/04 00:27:53;;;;;;;;;;;4.90;99.90;5.30;99648.00;;;;337775;28;88322;-96
2023/04/04 00:28:08;;;;;;;;;;;4.90;99.90;5.40;99648.00;;;;337985;28;82570;-96
2023/04/04 00:28:22;;;;;;;;;;;5.00;99.90;5.40;99655.00;;;;337808;28;86467;-96
2023/04/04 00:28:48;;;;;;;;;;;4.90;99.90;5.40;99653.00;;;;337983;28;82233;-96
2023/04/04 00:29:16;;;;;;;;;;;4.90;99.90;5.40;99653.00;;;;337490;28;87193;-96
2023/04/04 00:29:30;;;;;;;;;;;4.90;99.90;5.50;99642.00;;;;337393;28;82423;-96
2023/04/04 00:29:57;;;;;;;;;;;4.90;99.90;5.30;99656.00;;;;336367;28;87019;-96
2023/04/04 00:30:13;;;;;;;;;;;4.90;99.90;5.40;99643.00;;;;337011;29;82268;-96
2023/04/04 00:30:29;;;;;;;;;;;4.80;99.90;5.40;99657.00;;;;338696;28;87479;-96
2023/04/04 00:30:42;;;;;;;;;;;4.90;99.90;5.40;99647.00;;;;339465;28;82577;-96
2023/04/04 00:30:56;;;;;;;;;;;4.90;99.90;5.40;99662.00;;;;335292;28;88625;-96
2023/04/04 00:31:18;;;;;;;;;;;4.90;99.90;5.40;99649.00;;;;336913;29;82381;-96
2023/04/04 00:31:36;;;;;;;;;;;4.90;99.90;5.40;99659.00;;;;337594;28;86643;-96
2023/04/04 00:31:57;;;;;;;;;;;4.90;99.90;5.40;99655.00;;;;339177;28;82569;-96
2023/04/04 00:32:17;;;;;;;;;;;4.90;99.90;5.40;99660.00;;;;337243;28;88735;-96
2023/04/04 00:32:30;;;;;;;;;;;4.90;99.90;5.30;99660.00;;;;337912;28;82377;-96
2023/04/04 00:32:43;;;;;;;;;;;4.90;99.90;5.20;99653.00;;;;338464;28;87341;-96
2023/04/04 00:32:56;;;;;;;;;;;4.80;99.90;5.30;99660.00;;;;339447;28;82225;-96
2023/04/04 00:33:12;;;;;;;;;;;4.80;99.90;5.30;99651.00;;;;338752;28;86995;-96
2023/04/04 00:33:29;;;;;;;;;;;4.80;99.90;5.30;99669.00;;;;337765;28;82623;-96
2023/04/04 00:33:43;;;;;;;;;;;4.80;99.90;5.30;99650.00;;;;337240;28;88323;-96
2023/04/04 00:33:56;;;;;;;;;;;4.80;99.90;5.30;99647.00;;;;337774;28;82657;-96
2023/04/04 00:34:10;;;;;;;;;;;4.80;99.90;5.30;99661.00;;;;338535;28;88624;-96
2023/04/04 00:34:22;;;;;;;;;;;4.80;99.90;5.30;99656.00;;;;337884;28;82548;-96
2023/04/04 00:34:36;;;;;;;;;;;4.80;99.90;5.30;99648.00;;;;337335;28;87427;-96
2023/04/04 00:34:53;;;;;;;;;;;4.80;99.90;5.30;99647.00;;;;337627;28;82566;-96
2023/04/04 00:35:09;;;;;;;;;;;4.80;99.90;5.20;99643.00;;;;337175;28;87075;-96
2023/04/04 00:35:26;;;;;;;;;;;4.80;99.90;5.30;99646.00;;;;335150;29;82460;-96
2023/04/04 00:35:40;;;;;;;;;;;4.80;99.90;5.30;99640.00;;;;339985;28;87393;-96
2023/04/04 00:35:53;;;;;;;;;;;4.80;99.90;5.30;99644.00;;;;337598;28;82595;-96
2023/04/04 00:36:09;;;;;;;;;;;4.80;99.90;5.20;99640.00;;;;337670;28;88106;-96
2023/04/04 00:36:22;;;;;;;;;;;4.80;99.90;5.20;99645.00;;;;337857;28;82528;-96
2023/04/04 00:36:35;;;;;;;;;;;4.70;99.90;5.30;99646.00;;;;338668;28;87500;-96
2023/04/04 00:36:48;;;;;;;;;;;4.70;99.90;5.30;99647.00;;;;336515;29;82598;-96
2023/04/04 00:37:06;;;;;;;;;;;4.80;99.90;5.30;99642.00;;;;337533;28;87265;-96
2023/04/04 00:37:20;;;;;;;;;;;4.80;99.90;5.20;99637.00;;;;335065;29;82524;-96
2023/04/04 00:37:34;;;;;;;;;;;4.80;99.90;5.20;99643.00;;;;336329;28;87411;-96
2023/04/04 00:37:47;;;;;;;;;;;4.70;99.90;5.20;99649.00;;;;338873;28;82538;-96
2023/04/04 00:38:04;;;;;;;;;;;4.80;99.90;5.20;99647.00;;;;336156;29;87480;-96
2023/04/04 00:38:17;;;;;;;;;;;4.70;99.90;5.20;99647.00;;;;337571;28;82529;-96
2023/04/04 00:38:34;;;;;;;;;;;4.70;99.90;5.30;99634.00;;;;338643;28;88257;-96
2023/04/04 00:38:47;;;;;;;;;;;4.70;99.90;5.20;99639.00;;;;339086;28;82538;-96
2023/04/04 00:39:00;;;;;;;;;;;4.70;99.90;5.30;99649.00;;;;335943;29;87199;-96
2023/04/04 00:39:12;;;;;;;;;;;4.70;99.90;5.30;99639.00;;;;337781;28;82567;-96
2023/04/04 00:39:25;;;;;;;;;;;4.80;99.90;5.20;99649.00;;;;337148;28;87186;-96
2023/04/04 00:39:38;;;;;;;;;;;4.80;99.90;5.20;99638.00;;;;336148;28;82609;-96
2023/04/04 00:39:51;;;;;;;;;;;4.70;99.90;5.20;99646.00;;;;338555;28;87351;-96
2023/04/04 00:40:07;;;;;;;;;;;4.70;99.90;5.20;99651.00;;;;339204;28;82524;-96
2023/04/04 00:40:19;;;;;;;;;;;4.70;99.90;5.20;99655.00;;;;337163;28;89341;-96
2023/04/04 00:40:47;;;;;;;;;;;4.70;99.90;5.20;99640.00;;;;335262;29;82534;-96
2023/04/04 00:41:00;;;;;;;;;;;4.70;99.90;5.10;99647.00;;;;337339;28;88388;-96
2023/04/04 00:41:12;;;;;;;;;;;4.70;99.90;5.20;99647.00;;;;337494;28;82532;-96
2023/04/04 00:41:26;;;;;;;;;;;4.70;99.90;5.10;99639.00;;;;336211;28;87265;-96
2023/04/04 00:41:39;;;;;;;;;;;4.70;99.90;5.20;99647.00;;;;339241;28;82419;-96
2023/04/04 00:41:52;;;;;;;;;;;4.70;99.90;5.20;99639.00;;;;337359;28;88639;-96
2023/04/04 00:42:08;;;;;;;;;;;4.70;99.90;5.20;99640.00;;;;338910;28;82617;-96
2023/04/04 00:42:21;;;;;;;;;;;4.70;99.90;5.20;99645.00;;;;338364;28;87383;-96
2023/04/04 00:42:39;;;;;;;;;;;4.70;99.90;5.30;99632.00;;;;337770;28;82537;-96
2023/04/04 00:42:54;;;;;;;;;;;4.70;99.90;5.20;99632.00;;;;338561;28;87187;-96
2023/04/04 00:43:06;;;;;;;;;;;4.70;99.90;5.20;99646.00;;;;338990;28;82632;-96
2023/04/04 00:43:20;;;;;;;;;;;4.70;99.90;5.20;99642.00;;;;337359;28;87952;-96
2023/04/04 00:43:33;;;;;;;;;;;4.70;99.90;5.20;99641.00;;;;339355;28;82465;-96
2023/04/04 00:43:48;;;;;;;;;;;4.70;99.90;5.10;99641.00;;;;340026;28;87237;-96
2023/04/04 00:44:01;;;;;;;;;;;4.70;99.90;5.10;99632.00;;;;335406;29;82445;-96
2023/04/04 00:44:15;;;;;;;;;;;4.60;99.90;5.00;99635.00;;;;340081;28;87384;-96
2023/04/04 00:44:29;;;;;;;;;;;4.60;99.90;5.00;99632.00;;;;337533;28;82530;-96
2023/04/04 00:44:43;;;;;;;;;;;4.60;99.90;5.00;99637.00;;;;337445;28;87238;-96
2023/04/04 00:44:58;;;;;;;;;;;4.60;99.90;5.10;99637.00;;;;337651;28;82573;-96
2023/04/04 00:45:14;;;;;;;;;;;4.60;99.90;5.10;99626.00;;;;336267;29;87193;-96
2023/04/04 00:45:27;;;;;;;;;;;4.60;99.90;5.10;99636.00;;;;339086;28;82534;-96
2023/04/04 00:45:43;;;;;;;;;;;4.60;99.90;5.10;99644.00;;;;338663;28;90253;-96
2023/04/04 00:45:55;;;;;;;;;;;4.60;99.90;5.10;99644.00;;;;336335;29;82579;-96
2023/04/04 00:46:10;;;;;;;;;;;4.60;99.90;5.20;99648.00;;;;337915;28;88436;-96
2023/04/04 00:46:26;;;;;;;;;;;4.60;99.90;5.10;99634.00;;;;337980;28;82322;-96
2023/04/04 00:46:40;;;;;;;;;;;4.60;99.90;5.20;99647.00;;;;336487;28;86625;-96
2023/04/04 00:46:52;;;;;;;;;;;4.60;99.90;5.10;99635.00;;;;336709;28;82547;-96
2023/04/04 00:47:06;;;;;;;;;;;4.60;99.90;5.10;99640.00;;;;337430;28;87284;-96
2023/04/04 00:47:22;;;;;;;;;;;4.60;99.90;5.10;99646.00;;;;336605;29;82521;-96
2023/04/04 00:47:37;;;;;;;;;;;4.60;99.90;5.10;99635.00;;;;337640;28;87556;-96
2023/04/04 00:47:50;;;;;;;;;;;4.60;99.90;5.20;99637.00;;;;339410;28;82339;-96
2023/04/04 00:48:04;;;;;;;;;;;4.60;99.90;5.20;99644.00;;;;338926;28;88287;-96
2023/04/04 00:48:30;;;;;;;;;;;4.60;99.90;5.10;99641.00;;;;336739;28;82676;-96
2023/04/04 00:48:43;;;;;;;;;;;4.60;99.90;5.10;99643.00;;;;337232;28;89367;-96
2023/04/04 00:48:56;;;;;;;;;;;4.60;99.90;5.10;99628.00;;;;338998;28;82546;-96
2023/04/04 00:49:10;;;;;;;;;;;4.60;99.90;5.10;99645.00;;;;337412;28;87217;-96
2023/04/04 00:49:24;;;;;;;;;;;4.60;99.90;5.10;99641.00;;;;337905;28;82535;-96
2023/04/04 00:49:38;;;;;;;;;;;4.60;99.90;5.10;99646.00;;;;338798;28;87200;-96
2023/04/04 00:49:54;;;;;;;;;;;4.60;99.90;5.10;99641.00;;;;337879;28;82484;-96
2023/04/04 00:50:11;;;;;;;;;;;4.60;99.90;5.10;99644.00;;;;338837;28;87158;-96
2023/04/04 00:50:31;;;;;;;;;;;4.60;99.90;5.20;99639.00;;;;337892;28;82532;-96
2023/04/04 00:50:44;;;;;;;;;;;4.60;99.90;5.10;99647.00;;;;338439;28;89342;-96
2023/04/04 00:51:00;;;;;;;;;;;4.60;99.90;5.00;99643.00;;;;338301;28;82365;-96
2023/04/04 00:51:13;;;;;;;;;;;4.60;99.90;5.00;99645.00;;;;339881;28;87406;-96
2023/04/04 00:51:29;;;;;;;;;;;4.60;99.90;5.10;99646.00;;;;340331;28;82515;-96
2023/04/04 00:51:45;;;;;;;;;;;4.60;99.90;5.10;99637.00;;;;334866;29;87085;-96
2023/04/04 00:51:58;;;;;;;;;;;4.60;99.90;5.10;99639.00;;;;335279;29;82533;-96
2023/04/04 00:52:11;;;;;;;;;;;4.60;99.90;5.10;99643.00;;;;336901;28;87143;-96
2023/04/04 00:52:24;;;;;;;;;;;4.60;99.90;5.10;99636.00;;;;340299;28;82665;-96
2023/04/04 00:52:41;;;;;;;;;;;4.60;99.90;5.10;99647.00;;;;336255;29;87074;-96
2023/04/04 00:52:55;;;;;;;;;;;4.50;99.90;5.00;99641.00;;;;336553;28;82708;-96
2023/04/04 00:53:08;;;;;;;;;;;4.50;99.90;5.10;99646.00;;;;338657;28;88458;-96
2023/04/04 00:53:23;;;;;;;;;;;4.50;99.90;5.10;99634.00;;;;339080;28;82433;-96
2023/04/04 00:53:47;;;;;;;;;;;4.60;99.90;5.10;99646.00;;;;337465;28;89901;-96
2023/04/04 00:54:00;;;;;;;;;;;4.50;99.90;5.10;99639.00;;;;340239;28;82530;-96
2023/04/04 00:54:17;;;;;;;;;;;4.60;99.90;5.10;99635.00;;;;338495;28;87461;-96
2023/04/04 00:54:32;;;;;;;;;;;4.50;99.90;5.10;99641.00;;;;338947;28;82511;-96
2023/04/04 00:54:47;;;;;;;;;;;4.60;99.90;5.00;99640.00;;;;333281;29;87548;-96
2023/04/04 00:55:00;;;;;;;;;;;4.60;99.90;5.00;99650.00;;;;337819;28;82429;-96
2023/04/04 00:55:15;;;;;;;;;;;4.60;99.90;5.00;99651.00;;;;338574;28;87465;-96
2023/04/04 00:55:27;;;;;;;;;;;4.60;99.90;5.00;99640.00;;;;337781;28;82548;-96
2023/04/04 00:55:42;;;;;;;;;;;4.60;99.90;5.10;99642.00;;;;337546;28;87751;-96
2023/04/04 00:55:58;;;;;;;;;;;4.50;99.90;5.00;99639.00;;;;337722;28;82388;-96
2023/04/04 00:56:19;;;;;;;;;;;4.60;99.90;5.10;99631.00;;;;337331;28;89000;-96
2023/04/04 00:56:36;;;;;;;;;;;4.50;99.90;5.10;99640.00;;;;337903;28;82547;-96
2023/04/04 00:56:54;;;;;;;;;;;4.50;99.90;5.00;99648.00;;;;338078;28;87374;-96
2023/04/04 00:57:11;;;;;;;;;;;4.60;99.90;5.10;99642.00;;;;340342;28;82606;-96
2023/04/04 00:57:23;;;;;;;;;;;4.60;99.90;5.10;99628.00;;;;337547;28;87566;-96
2023/04/04 00:57:38;;;;;;;;;;;4.50;99.90;5.00;99640.00;;;;335436;28;82397;-96
2023/04/04 00:57:51;;;;;;;;;;;4.50;99.90;5.00;99638.00;;;;337383;28;87367;-96
2023/04/04 00:58:06;;;;;;;;;;;4.50;99.90;5.10;99630.00;;;;337987;28;82529;-96
2023/04/04 00:58:18;;;;;;;;;;;4.50;99.90;5.10;99641.00;;;;337452;28;88066;-96
2023/04/04 00:58:34;;;;;;;;;;;4.60;99.90;5.10;99630.00;;;;341578;28;82613;-96
2023/04/04 00:58:47;;;;;;;;;;;4.50;99.90;5.10;99629.00;;;;337189;28;87224;-96
2023/04/04 00:59:02;;;;;;;;;;;4.60;99.90;5.00;99641.00;;;;337914;28;82568;-96
2023/04/04 00:59:29;;;;;;;;;;;4.60;99.90;5.10;99635.00;;;;336992;28;86801;-96
2023/04/04 00:59:42;;;;;;;;;;;4.60;99.90;5.10;99634.00;;;;339123;28;82522;-96
2023/04/04 01:00:00;;;;;;;;;;;4.60;99.90;5.00;99633.00;;;;335901;29;87440;-96
2023/04/04 01:00:14;;;;;;;;;;;4.50;99.90;4.90;99640.00;;;;339020;28;82570;-96
2023/04/04 01:00:27;;;;;;;;;;;4.50;99.90;5.00;99627.00;;;;340917;28;89194;-96
2023/04/04 01:00:39;;;;;;;;;;;4.50;99.90;4.90;99632.00;;;;337795;28;82423;-96
2023/04/04 01:00:52;;;;;;;;;;;4.50;99.90;5.00;99640.00;;;;338503;28;88246;-96
2023/04/04 01:01:06;;;;;;;;;;;4.50;99.90;5.00;99644.00;;;;337491;28;82520;-96
2023/04/04 01:01:20;;;;;;;;;;;4.50;99.90;5.00;99637.00;;;;338281;28;89921;-96
2023/04/04 01:01:32;;;;;;;;;;;4.50;99.90;5.00;99645.00;;;;337836;28;82532;-96
2023/04/04 01:01:49;;;;;;;;;;;4.50;99.90;5.00;99636.00;;;;337127;28;87395;-96
2023/04/04 01:02:03;;;;;;;;;;;4.50;99.90;5.00;99629.00;;;;339069;28;82506;-96
2023/04/04 01:02:16;;;;;;;;;;;4.50;99.90;5.00;99624.00;;;;338381;28;87197;-96
2023/04/04 01:02:32;;;;;;;;;;;4.50;99.90;5.00;99629.00;;;;337296;28;82520;-96
2023/04/04 01:02:47;;;;;;;;;;;4.50;99.90;5.00;99634.00;;;;337133;28;87454;-96
2023/04/04 01:03:01;;;;;;;;;;;4.50;99.90;5.00;99638.00;;;;339884;28;82457;-96
2023/04/04 01:03:14;;;;;;;;;;;4.50;99.90;5.00;99635.00;;;;337065;28;88383;-96
2023/04/04 01:03:33;;;;;;;;;;;4.50;99.90;5.00;99630.00;;;;338935;28;82551;-96
2023/04/04 01:03:50;;;;;;;;;;;4.50;99.90;4.90;99630.00;;;;337893;28;87371;-96
2023/04/04 01:04:03;;;;;;;;;;;4.50;99.90;5.00;99641.00;;;;337895;28;82286;-96
2023/04/04 01:04:17;;;;;;;;;;;4.50;99.90;4.90;99644.00;;;;338361;28;87309;-96
2023/04/04 01:04:35;;;;;;;;;;;4.50;99.90;4.90;99621.00;;;;336448;29;82724;-96
2023/04/04 01:04:50;;;;;;;;;;;4.50;99.90;4.90;99631.00;;;;338182;28;89144;-96
2023/04/04 01:05:08;;;;;;;;;;;4.40;99.90;5.00;99640.00;;;;337512;28;82622;-96
2023/04/04 01:05:21;;;;;;;;;;;4.50;99.90;5.00;99624.00;;;;334586;28;87176;-96
2023/04/04 01:05:36;;;;;;;;;;;4.40;99.90;4.90;99628.00;;;;337530;28;82632;-96
2023/04/04 01:05:49;;;;;;;;;;;4.40;99.90;4.90;99634.00;;;;337059;28;87938;-96
2023/04/04 01:06:03;;;;;;;;;;;4.40;99.90;4.90;99638.00;;;;334786;29;82531;-96
2023/04/04 01:06:16;;;;;;;;;;;4.40;99.90;5.00;99628.00;;;;338222;28;87292;-96
2023/04/04 01:06:31;;;;;;;;;;;4.40;99.90;5.00;99630.00;;;;338694;28;82528;-96
2023/04/04 01:06:45;;;;;;;;;;;4.50;99.90;5.00;99623.00;;;;334539;29;87381;-96
2023/04/04 01:06:57;;;;;;;;;;;4.40;99.90;5.00;99632.00;;;;338056;28;82406;-96
2023/04/04 01:07:11;;;;;;;;;;;4.50;99.90;5.00;99624.00;;;;337268;28;87218;-96
2023/04/04 01:07:24;;;;;;;;;;;4.50;99.90;5.00;99635.00;;;;337556;28;82582;-96
2023/04/04 01:07:37;;;;;;;;;;;4.40;99.90;5.00;99624.00;;;;338224;28;87590;-96
2023/04/04 01:07:51;;;;;;;;;;;4.40;99.90;5.00;99621.00;;;;337347;28;82724;-96
2023/04/04 01:08:05;;;;;;;;;;;4.50;99.90;5.00;99624.00;;;;336822;28;90120;-96
2023/04/04 01:08:21;;;;;;;;;;;4.50;99.90;5.00;99620.00;;;;338806;28;82587;-96
2023/04/04 01:08:36;;;;;;;;;;;4.50;99.90;4.90;99629.00;;;;335911;28;87199;-96
2023/04/04 01:08:50;;;;;;;;;;;4.40;99.90;5.00;99628.00;;;;339063;28;82577;-96
2023/04/04 01:09:04;;;;;;;;;;;4.40;99.90;5.00;99634.00;;;;338731;28;88302;-96
2023/04/04 01:09:17;;;;;;;;;;;4.40;99.90;5.00;99633.00;;;;335302;29;82504;-96
2023/04/04 01:09:32;;;;;;;;;;;4.50;99.90;4.90;99632.00;;;;338794;28;87163;-96
2023/04/04 01:09:47;;;;;;;;;;;4.40;99.90;5.00;99630.00;;;;337673;28;82577;-96
2023/04/04 01:10:02;;;;;;;;;;;4.40;99.90;5.00;99630.00;;;;338327;28;87384;-96
2023/04/04 01:10:25;;;;;;;;;;;4.50;99.90;5.00;99625.00;;;;339419;28;82382;-96
2023/04/04 01:10:40;;;;;;;;;;;4.50;99.90;4.90;99628.00;;;;339883;28;88359;-96
2023/04/04 01:10:53;;;;;;;;;;;4.50;99.90;4.90;99632.00;;;;340265;28;82510;-96
2023/04/04 01:11:07;;;;;;;;;;;4.40;99.90;4.90;99629.00;;;;339551;28;89138;-96
2023/04/04 01:11:22;;;;;;;;;;;4.40;99.90;4.90;99628.00;;;;339007;28;82453;-96
2023/04/04 01:11:40;;;;;;;;;;;4.50;99.90;5.00;99627.00;;;;338751;28;87455;-96
2023/04/04 01:11:58;;;;;;;;;;;4.40;99.90;5.00;99625.00;;;;336568;28;82364;-96
2023/04/04 01:12:13;;;;;;;;;;;4.50;99.90;5.00;99633.00;;;;337150;28;87483;-96
2023/04/04 01:12:25;;;;;;;;;;;4.40;99.90;5.00;99622.00;;;;339037;28;82557;-96
2023/04/04 01:12:39;;;;;;;;;;;4.50;99.90;4.90;99625.00;;;;339985;28;87111;-96
2023/04/04 01:12:55;;;;;;;;;;;4.50;99.90;5.00;99626.00;;;;338935;28;82605;-96
2023/04/04 01:13:08;;;;;;;;;;;4.40;99.90;4.90;99630.00;;;;338135;28;88095;-96
2023/04/04 01:13:22;;;;;;;;;;;4.40;99.90;4.90;99624.00;;;;340277;28;82553;-96
2023/04/04 01:13:42;;;;;;;;;;;4.40;99.90;4.90;99634.00;;;;341204;28;87550;-96
2023/04/04 01:13:58;;;;;;;;;;;4.40;99.90;5.00;99625.00;;;;340751;28;82130;-96
2023/04/04 01:14:11;;;;;;;;;;;4.40;99.90;5.00;99623.00;;;;339780;28;88478;-96
2023/04/04 01:14:26;;;;;;;;;;;4.40;99.90;5.00;99625.00;;;;340232;28;82406;-96
2023/04/04 01:14:45;;;;;;;;;;;4.40;99.90;4.90;99619.00;;;;338263;28;87372;-96
2023/04/04 01:14:58;;;;;;;;;;;4.40;99.90;4.80;99615.00;;;;340381;28;82562;-96
2023/04/04 01:15:14;;;;;;;;;;;4.40;99.90;4.90;99620.00;;;;339532;28;87426;-96
2023/04/04 01:15:31;;;;;;;;;;;4.40;99.90;4.80;99624.00;;;;338966;28;82542;-96
2023/04/04 01:15:46;;;;;;;;;;;4.40;99.90;4.80;99620.00;;;;339914;28;88296;-96
2023/04/04 01:16:00;;;;;;;;;;;4.40;99.90;4.80;99615.00;;;;340276;28;82539;-96
2023/04/04 01:16:14;;;;;;;;;;;4.30;99.90;4.80;99614.00;;;;338599;28;87411;-96
2023/04/04 01:16:45;;;;;;;;;;;4.40;99.90;4.90;99615.00;;;;336662;29;82455;-96
2023/04/04 01:17:03;;;;;;;;;;;4.40;99.90;4.90;99621.00;;;;338480;28;87688;-96
2023/04/04 01:17:18;;;;;;;;;;;4.30;99.90;4.90;99625.00;;;;340361;28;82564;-96
2023/04/04 01:17:31;;;;;;;;;;;4.40;99.90;4.90;99615.00;;;;338657;28;87359;-96
2023/04/04 01:17:43;;;;;;;;;;;4.40;99.90;4.90;99622.00;;;;340380;28;82530;-96
2023/04/04 01:18:01;;;;;;;;;;;4.40;99.90;4.90;99623.00;;;;341395;28;86626;-96
2023/04/04 01:18:16;;;;;;;;;;;4.40;99.90;4.90;99631.00;;;;340414;28;82560;-96
2023/04/04 01:18:33;;;;;;;;;;;4.40;99.90;4.90;99626.00;;;;338161;28;88338;-96
2023/04/04 01:18:47;;;;;;;;;;;4.40;99.90;4.90;99629.00;;;;339055;28;82429;-96
2023/04/04 01:18:59;;;;;;;;;;;4.40;99.90;4.90;99629.00;;;;338517;28;87338;-96
2023/04/04 01:19:17;;;;;;;;;;;4.40;99.90;4.90;99622.00;;;;340266;28;82548;-96
2023/04/04 01:19:43;;;;;;;;;;;4.40;99.90;4.80;99624.00;;;;338552;28;87705;-96